Time;durP1;ratioP1;P1;durP2;ratioP2;P2;SDS_P1;SDS_P2;PMS_P1;PMS_P2;Temp;Humidity;BMP_temperature;BMP_pressure;BME280_temperature;BME280_humidity;BME280_pressure;Samples;Min_cycle;Max_cycle;Signal;HPM_P1;HPM_P2
2022/04/25 00:02:29;;;;;;;7.40;2.55;;;;;;;18.59;89.54;100196.69;4994890;28;20027;-74
2022/04/25 00:05:15;;;;;;;8.35;2.58;;;;;;;18.56;89.29;100196.84;4997416;28;20037;-75
2022/04/25 00:08:00;;;;;;;7.78;2.67;;;;;;;18.75;87.19;100200.16;4996131;28;20427;-75
2022/04/25 00:10:46;;;;;;;6.97;2.45;;;;;;;18.85;86.01;100204.81;4995364;28;20490;-73
2022/04/25 00:13:32;;;;;;;8.25;2.92;;;;;;;18.67;86.84;100194.44;4996542;28;20034;-75
2022/04/25 00:16:18;;;;;;;6.00;2.50;;;;;;;18.33;90.32;100190.19;4996008;28;20073;-74
2022/04/25 00:19:04;;;;;;;7.35;2.75;;;;;;;18.40;90.01;100188.94;4994677;28;20137;-74
2022/04/25 00:21:51;;;;;;;8.15;2.80;;;;;;;18.79;88.34;100186.63;4996526;28;20092;-74
2022/04/25 00:24:37;;;;;;;10.95;2.70;;;;;;;18.78;90.01;100190.19;4996044;28;20026;-73
2022/04/25 00:27:22;;;;;;;5.38;2.60;;;;;;;18.56;91.22;100194.19;4982260;28;20022;-74
2022/04/25 00:30:09;;;;;;;5.97;2.75;;;;;;;18.60;91.79;100190.41;4996569;28;20026;-74
2022/04/25 00:32:56;;;;;;;10.00;3.13;;;;;;;18.70;92.02;100191.63;4996071;28;20058;-74
2022/04/25 00:35:42;;;;;;;7.15;2.47;;;;;;;18.58;93.93;100190.50;4996514;28;20037;-75
2022/04/25 00:38:28;;;;;;;8.82;2.72;;;;;;;18.54;94.95;100194.31;4994255;28;20034;-75
2022/04/25 00:41:14;;;;;;;8.10;3.10;;;;;;;18.37;96.54;100197.06;4996298;28;20022;-74
2022/04/25 00:44:00;;;;;;;9.73;2.80;;;;;;;18.39;95.58;100192.53;4995965;28;20041;-74
2022/04/25 00:46:48;;;;;;;7.95;3.17;;;;;;;18.56;94.86;100188.91;4996057;28;20026;-75
2022/04/25 00:49:34;;;;;;;9.52;3.45;;;;;;;18.40;96.28;100185.41;4994332;28;20058;-74
2022/04/25 00:52:20;;;;;;;8.52;2.92;;;;;;;18.29;98.40;100186.00;4996303;28;20112;-75
2022/04/25 00:55:09;;;;;;;11.45;2.97;;;;;;;18.46;97.80;100179.78;4995898;28;20141;-73
2022/04/25 00:57:56;;;;;;;7.05;2.58;;;;;;;18.69;96.77;100180.13;4996325;28;20433;-73
2022/04/25 01:00:44;;;;;;;6.82;2.90;;;;;;;18.65;97.09;100177.78;4994328;28;20030;-74
2022/04/25 01:03:30;;;;;;;7.28;3.10;;;;;;;18.81;96.00;100186.53;4994089;28;20031;-74
2022/04/25 01:06:16;;;;;;;10.45;3.20;;;;;;;18.70;96.21;100168.56;4995275;28;20104;-75
2022/04/25 01:09:03;;;;;;;7.90;3.05;;;;;;;18.66;97.64;100176.81;4995629;28;20133;-74
2022/04/25 01:11:49;;;;;;;8.32;3.03;;;;;;;18.65;97.75;100173.28;4994701;28;20117;-75
2022/04/25 01:14:34;;;;;;;10.38;2.83;;;;;;;18.67;98.00;100176.72;4995392;28;20031;-74
2022/04/25 01:17:20;;;;;;;11.05;3.13;;;;;;;18.95;95.46;100173.28;4994238;28;20470;-75
2022/04/25 01:20:07;;;;;;;14.30;3.75;;;;;;;19.01;93.16;100175.56;4993670;28;20030;-75
2022/04/25 01:29:29;;;;;;;10.18;3.20;;;;;;;19.00;91.45;100174.72;4994101;28;20015;-74
2022/04/25 01:32:17;;;;;;;11.98;3.17;;;;;;;18.94;91.91;100184.84;4994993;28;20125;-75
2022/04/25 01:35:03;;;;;;;12.30;3.35;;;;;;;19.08;90.58;100179.53;4980848;28;20022;-74
2022/04/25 01:37:49;;;;;;;9.98;3.10;;;;;;;18.90;91.82;100175.34;4981878;28;20022;-74
2022/04/25 01:40:35;;;;;;;11.25;3.05;;;;;;;18.68;92.70;100174.91;4995358;28;20038;-75
2022/04/25 01:43:20;;;;;;;10.18;3.20;;;;;;;18.75;92.42;100165.66;4995235;28;20100;-74
2022/04/25 01:46:06;;;;;;;13.25;3.47;;;;;;;19.01;90.43;100164.97;4993834;28;20073;-75
2022/04/25 01:48:52;;;;;;;12.60;3.63;;;;;;;18.99;92.83;100170.34;4995210;28;20046;-74
2022/04/25 01:51:39;;;;;;;8.05;3.15;;;;;;;18.92;92.11;100154.88;4993851;28;20506;-74
2022/04/25 01:54:26;;;;;;;8.77;3.05;;;;;;;18.96;91.64;100157.25;4993424;28;20042;-75
2022/04/25 01:57:12;;;;;;;9.07;3.33;;;;;;;19.07;91.20;100161.91;4994208;28;20041;-75
2022/04/25 01:59:58;;;;;;;12.45;3.33;;;;;;;18.71;93.59;100146.41;4981222;28;20037;-75
2022/04/25 02:02:44;;;;;;;11.63;3.45;;;;;;;18.72;95.00;100144.59;4994171;28;20026;-75
2022/04/25 02:05:29;;;;;;;13.88;3.40;;;;;;;18.56;94.39;100149.97;4981413;28;20443;-75
2022/04/25 02:08:15;;;;;;;9.32;3.25;;;;;;;18.34;97.14;100144.22;4994960;28;20026;-74
2022/04/25 02:11:19;;;;;;;9.43;3.30;;;;;;;18.56;95.60;100144.66;4994937;28;20054;-75
2022/04/25 02:14:05;;;;;;;10.80;3.33;;;;;;;18.82;94.81;100146.59;4992966;28;20375;-74
2022/04/25 02:16:50;;;;;;;11.68;3.38;;;;;;;18.59;95.58;100146.28;4980840;28;20037;-74
2022/04/25 02:19:38;;;;;;;13.77;3.80;;;;;;;18.74;96.29;100146.19;4994773;28;20080;-74
2022/04/25 02:22:24;;;;;;;12.75;3.70;;;;;;;18.91;94.18;100145.19;4993282;28;20030;-73
2022/04/25 02:25:10;;;;;;;17.50;3.28;;;;;;;18.84;96.35;100142.06;4994339;28;20030;-74
2022/04/25 02:27:56;;;;;;;17.13;3.60;;;;;;;18.60;95.56;100143.53;4994341;28;20028;-74
2022/04/25 02:30:41;;;;;;;12.70;3.53;;;;;;;18.63;94.24;100145.13;4980156;28;20105;-74
2022/04/25 02:33:27;;;;;;;15.20;3.30;;;;;;;18.55;96.84;100142.09;4994966;28;20042;-74
2022/04/25 02:36:13;;;;;;;13.02;3.70;;;;;;;18.81;96.04;100146.72;4994707;28;20023;-73
2022/04/25 02:38:59;;;;;;;10.88;3.40;;;;;;;18.69;94.94;100139.50;4993972;28;20061;-74
2022/04/25 02:41:44;;;;;;;9.50;4.07;;;;;;;18.80;95.08;100143.19;4993398;28;20022;-75
2022/04/25 02:44:30;;;;;;;11.15;3.58;;;;;;;18.59;95.65;100146.28;4980119;28;20046;-75
2022/04/25 02:47:16;;;;;;;13.80;3.30;;;;;;;18.61;97.12;100147.06;4996406;28;20018;-74
2022/04/25 02:50:02;;;;;;;10.40;4.03;;;;;;;18.78;94.21;100149.53;4996482;28;20117;-75
2022/04/25 02:52:53;;;;;;;14.52;3.65;;;;;;;18.74;97.17;100150.69;4998339;28;20026;-74
2022/04/25 02:55:38;;;;;;;8.95;3.55;;;;;;;18.69;97.14;100150.09;4996349;28;20033;-75
2022/04/25 02:58:25;;;;;;;10.35;3.60;;;;;;;18.67;95.83;100157.28;4996998;28;20506;-74
2022/04/25 03:01:11;;;;;;;12.63;3.80;;;;;;;18.42;97.57;100147.28;4997413;28;20433;-74
2022/04/25 03:03:57;;;;;;;9.43;3.15;;;;;;;18.61;97.91;100142.56;4998251;28;20038;-74
2022/04/25 03:06:42;;;;;;;12.27;3.70;;;;;;;18.54;98.53;100148.34;4996181;28;20027;-75
2022/04/25 03:09:28;;;;;;;10.85;3.47;;;;;;;18.43;99.65;100148.13;4997333;28;20027;-74
2022/04/25 03:12:15;;;;;;;12.50;3.22;;;;;;;18.48;97.93;100148.69;4997814;28;20041;-75
2022/04/25 03:15:01;;;;;;;11.00;3.35;;;;;;;18.14;99.21;100155.09;4997734;28;20352;-74
2022/04/25 03:17:47;;;;;;;13.77;3.85;;;;;;;18.45;96.99;100143.59;4997480;28;20022;-74
2022/04/25 03:20:34;;;;;;;8.98;3.38;;;;;;;18.53;94.90;100146.66;4995774;28;20065;-75
2022/04/25 03:23:21;;;;;;;14.38;3.83;;;;;;;18.57;97.25;100142.88;4982895;28;20026;-74
2022/04/25 03:26:07;;;;;;;14.05;3.95;;;;;;;18.51;98.41;100143.22;4997961;28;20109;-74
2022/04/25 03:28:53;;;;;;;12.32;3.70;;;;;;;18.26;100.00;100138.47;4997811;28;20026;-74
2022/04/25 03:31:39;;;;;;;10.35;3.97;;;;;;;18.36;98.39;100147.63;4995491;28;20050;-74
2022/04/25 03:34:24;;;;;;;10.90;4.18;;;;;;;18.40;98.56;100142.97;4996226;28;20092;-74
2022/04/25 03:37:11;;;;;;;11.18;3.55;;;;;;;18.46;98.58;100150.59;4995435;28;20030;-74
2022/04/25 03:40:00;;;;;;;13.48;3.72;;;;;;;18.35;97.73;100140.63;4996312;28;20088;-74
2022/04/25 03:42:45;;;;;;;10.80;3.65;;;;;;;18.38;97.67;100145.75;4995465;28;20450;-74
2022/04/25 03:45:32;;;;;;;12.48;3.65;;;;;;;18.39;98.81;100141.28;4997725;28;20045;-75
2022/04/25 03:48:18;;;;;;;15.65;4.40;;;;;;;18.61;97.86;100147.06;4995850;28;20037;-74
2022/04/25 03:51:04;;;;;;;12.02;4.28;;;;;;;18.39;99.35;100146.59;4982939;28;20037;-74
2022/04/25 03:53:50;;;;;;;14.07;4.13;;;;;;;18.49;97.82;100150.41;4995310;28;20110;-75
2022/04/25 03:59:40;;;;;;;15.80;4.18;;;;;;;18.12;100.00;100153.44;4995889;28;20454;-74
2022/04/25 04:02:26;;;;;;;10.27;4.30;;;;;;;18.32;100.00;100154.00;4995100;28;20451;-76
2022/04/25 04:05:12;;;;;;;12.65;3.83;;;;;;;18.49;99.13;100161.03;4996919;28;20037;-75
2022/04/25 04:07:58;;;;;;;14.57;4.10;;;;;;;18.62;98.13;100156.72;4982022;28;20037;-74
2022/04/25 04:10:43;;;;;;;18.13;4.18;;;;;;;18.58;98.82;100152.53;4995265;28;20344;-74
2022/04/25 04:13:29;;;;;;;14.45;4.03;;;;;;;18.44;97.79;100156.00;4994991;28;20039;-74
2022/04/25 04:16:15;;;;;;;11.07;3.65;;;;;;;18.57;97.29;100150.84;4995484;28;20030;-74
2022/04/25 04:19:01;;;;;;;13.60;3.85;;;;;;;18.68;97.15;100164.28;4996345;28;20045;-74
2022/04/25 04:21:46;;;;;;;14.40;4.13;;;;;;;18.67;96.25;100157.28;4996810;28;20022;-75
2022/04/25 04:24:34;;;;;;;18.42;3.60;;;;;;;18.70;95.69;100157.94;4994639;28;20049;-73
2022/04/25 04:27:20;;;;;;;12.55;3.75;;;;;;;18.86;95.89;100155.25;4996563;28;20014;-74
2022/04/25 04:30:08;;;;;;;13.98;4.13;;;;;;;18.98;94.70;100150.03;4996482;28;20395;-74
2022/04/25 04:32:54;;;;;;;19.95;4.50;;;;;;;18.86;93.99;100161.41;4995367;28;20046;-74
2022/04/25 04:38:48;;;;;;;14.55;3.83;;;;;;;19.01;93.54;100159.66;4995303;28;20149;-74
2022/04/25 04:41:33;;;;;;;15.85;4.50;;;;;;;19.15;94.71;100163.16;4994423;28;20130;-74
2022/04/25 04:44:19;;;;;;;13.80;4.03;;;;;;;18.97;93.38;100163.44;4994663;28;20038;-74
2022/04/25 04:47:05;;;;;;;14.73;3.80;;;;;;;19.08;92.31;100158.31;4996320;28;20045;-74
2022/04/25 04:49:51;;;;;;;16.23;4.18;;;;;;;19.30;90.37;100156.09;4996271;28;20037;-75
2022/04/25 04:52:37;;;;;;;18.05;4.50;;;;;;;19.55;89.40;100150.94;4994279;28;20097;-74
2022/04/25 04:55:23;;;;;;;11.68;4.05;;;;;;;19.46;88.42;100146.22;4996123;28;20069;-74
2022/04/25 04:58:08;;;;;;;17.75;3.92;;;;;;;19.43;89.21;100149.06;4995123;28;20030;-74
2022/04/25 05:00:54;;;;;;;15.05;4.18;;;;;;;19.73;87.54;100144.44;4994877;28;20088;-74
2022/04/25 05:03:41;;;;;;;19.25;3.83;;;;;;;19.65;89.69;100149.41;4995928;28;20041;-75
2022/04/25 05:06:28;;;;;;;15.57;4.28;;;;;;;19.97;86.11;100132.22;4996307;28;20038;-74
2022/04/25 05:09:13;;;;;;;14.45;4.47;;;;;;;19.94;87.07;100143.09;4995985;28;20033;-74
2022/04/25 05:11:59;;;;;;;14.52;4.25;;;;;;;19.86;84.89;100149.84;4993901;28;20474;-74
2022/04/25 05:14:45;;;;;;;17.25;5.10;;;;;;;20.16;87.34;100154.06;4980557;28;20050;-74
2022/04/25 05:17:31;;;;;;;19.40;5.47;;;;;;;20.46;84.99;100160.03;4995120;28;20026;-76
2022/04/25 05:20:18;;;;;;;17.73;4.05;;;;;;;20.34;84.48;100163.50;4993786;28;20122;-74
2022/04/25 05:23:04;;;;;;;12.73;4.22;;;;;;;20.61;82.55;100168.78;4981705;28;20045;-74
2022/04/25 05:25:51;;;;;;;15.43;5.07;;;;;;;20.89;80.89;100166.81;4981555;28;20092;-75
2022/04/25 05:28:36;;;;;;;12.68;4.13;;;;;;;21.02;81.26;100167.69;4995909;28;20022;-75
2022/04/25 05:31:22;;;;;;;14.70;4.50;;;;;;;21.03;80.43;100165.91;4995604;28;20364;-75
2022/04/25 05:34:09;;;;;;;15.35;3.95;;;;;;;20.75;81.15;100169.56;4993923;28;20018;-75
2022/04/25 05:36:54;;;;;;;17.95;4.10;;;;;;;20.94;80.51;100178.03;4995255;28;20041;-74
2022/04/25 05:39:40;;;;;;;16.30;4.15;;;;;;;20.87;80.94;100190.03;4994927;28;20448;-74
2022/04/25 05:42:26;;;;;;;18.80;4.72;;;;;;;20.83;83.60;100190.34;4981422;28;20034;-75
2022/04/25 05:45:14;;;;;;;21.58;4.45;;;;;;;20.58;86.82;100195.63;4995395;28;20040;-75
2022/04/25 05:48:00;;;;;;;15.68;4.63;;;;;;;21.04;85.82;100203.09;4994300;28;20493;-74
2022/04/25 05:53:50;;;;;;;11.05;3.92;;;;;;;21.13;86.72;100204.28;4993444;28;20030;-75
2022/04/25 05:56:36;;;;;;;9.68;4.00;;;;;;;21.34;86.92;100206.28;4981311;28;20384;-75
2022/04/25 05:59:22;;;;;;;16.73;4.40;;;;;;;21.16;86.36;100210.25;4995166;28;20030;-75
2022/04/25 06:02:07;;;;;;;17.15;4.28;;;;;;;21.09;88.00;100208.94;4994393;28;20030;-74
2022/04/25 06:04:53;;;;;;;14.00;4.68;;;;;;;21.21;87.78;100208.09;4993835;28;20050;-74
2022/04/25 06:07:43;;;;;;;14.80;4.13;;;;;;;21.23;89.01;100205.34;4980013;28;20023;-75
2022/04/25 06:10:28;;;;;;;13.45;5.20;;;;;;;21.94;86.13;100212.66;4980539;28;20458;-76
2022/04/25 06:13:14;;;;;;;17.30;4.55;;;;;;;21.52;86.94;100202.34;4993165;28;20026;-75
2022/04/25 06:16:00;;;;;;;17.02;4.38;;;;;;;21.59;86.01;100206.31;4980284;28;20430;-75
2022/04/25 06:18:46;;;;;;;14.05;3.63;;;;;;;21.51;88.78;100206.00;4994601;28;20023;-75
2022/04/25 06:21:31;;;;;;;19.73;8.07;;;;;;;21.83;86.83;100201.06;4996206;28;20153;-75
2022/04/25 06:24:18;;;;;;;19.73;5.60;;;;;;;22.20;84.84;100206.31;4997079;28;20081;-75
2022/04/25 06:27:05;;;;;;;24.05;7.68;;;;;;;22.44;84.25;100214.31;4998271;28;20022;-74
2022/04/25 06:29:52;;;;;;;25.23;10.07;;;;;;;22.54;85.34;100212.69;4983901;28;20034;-75
2022/04/25 06:32:38;;;;;;;18.67;4.28;;;;;;;22.84;84.52;100213.94;4997634;28;20497;-74
2022/04/25 06:35:24;;;;;;;20.00;4.57;;;;;;;22.85;83.64;100207.63;4999129;28;20110;-75
2022/04/25 06:38:10;;;;;;;16.65;4.40;;;;;;;22.97;81.62;100209.34;4996958;28;20031;-75
2022/04/25 06:40:56;;;;;;;20.08;4.90;;;;;;;23.00;83.60;100222.50;4983703;28;20038;-74
2022/04/25 06:43:42;;;;;;;14.43;4.45;;;;;;;22.62;85.65;100219.16;4996563;28;20431;-75
2022/04/25 06:46:29;;;;;;;16.30;4.30;;;;;;;22.81;85.31;100216.81;4998345;28;20089;-74
2022/04/25 06:49:21;;;;;;;14.50;4.45;;;;;;;22.75;87.64;100214.59;4996690;28;20022;-74
2022/04/25 06:52:09;;;;;;;14.48;4.45;;;;;;;22.75;89.56;100208.44;4997977;28;20375;-75
2022/04/25 06:54:54;;;;;;;27.25;5.10;;;;;;;23.01;86.98;100208.16;4996923;28;20022;-75
2022/04/25 06:57:40;;;;;;;17.73;5.50;;;;;;;23.18;84.97;100210.38;4997441;28;20506;-74
2022/04/25 07:00:27;;;;;;;14.05;4.85;;;;;;;23.00;83.99;100208.25;4996631;28;20026;-74
2022/04/25 07:03:13;;;;;;;17.52;4.60;;;;;;;23.18;81.58;100209.50;4996494;28;20030;-75
2022/04/25 07:05:59;;;;;;;17.40;4.47;;;;;;;23.13;81.26;100207.22;4997888;28;20034;-74
2022/04/25 07:08:45;;;;;;;16.27;4.28;;;;;;;23.23;80.94;100210.06;4984188;28;20049;-75
2022/04/25 07:11:30;;;;;;;19.55;4.35;;;;;;;23.61;77.42;100209.72;4983426;28;20093;-75
2022/04/25 07:14:18;;;;;;;18.13;4.22;;;;;;;23.67;75.31;100218.13;4996899;28;20038;-75
2022/04/25 07:17:04;;;;;;;17.20;3.97;;;;;;;24.09;74.02;100217.41;4997651;28;20023;-74
2022/04/25 07:19:50;;;;;;;21.38;4.30;;;;;;;23.76;71.20;100208.50;4997770;28;20049;-74
2022/04/25 07:28:58;;;;;;;16.90;4.43;;;;;;;24.49;66.40;100212.31;4996396;28;20030;-75
2022/04/25 07:31:44;;;;;;;16.77;4.10;;;;;;;24.36;64.13;100225.00;4995840;28;20070;-75
2022/04/25 07:34:29;;;;;;;17.95;4.35;;;;;;;25.12;62.27;100207.78;4983778;28;20130;-76
2022/04/25 07:37:16;;;;;;;19.50;4.25;;;;;;;24.93;61.27;100215.72;4997301;28;20336;-75
2022/04/25 07:40:03;;;;;;;18.15;4.20;;;;;;;24.88;62.00;100212.56;4997726;28;20072;-75
2022/04/25 07:42:49;;;;;;;20.63;4.53;;;;;;;24.92;61.42;100214.00;4995609;28;20104;-74
2022/04/25 07:45:35;;;;;;;16.13;4.53;;;;;;;24.61;65.75;100214.00;5000826;28;20036;-75
2022/04/25 07:48:21;;;;;;;44.42;27.80;;;;;;;25.46;62.55;100213.81;4997161;28;20014;-75
2022/04/25 07:51:07;;;;;;;19.70;5.93;;;;;;;25.25;62.83;100219.19;4995536;28;20558;-75
2022/04/25 07:53:53;;;;;;;13.68;4.03;;;;;;;25.10;62.97;100222.31;4984438;28;20085;-75
2022/04/25 07:56:39;;;;;;;15.82;4.43;;;;;;;25.72;60.75;100218.59;4995055;28;20037;-75
2022/04/25 07:59:27;;;;;;;17.70;4.15;;;;;;;25.43;61.21;100220.31;4995423;28;20022;-75
2022/04/25 08:02:13;;;;;;;15.93;4.18;;;;;;;25.77;60.31;100218.22;4995392;28;20034;-76
2022/04/25 08:05:00;;;;;;;20.23;4.32;;;;;;;25.65;60.23;100217.47;4997610;28;20036;-75
2022/04/25 08:07:46;;;;;;;19.13;4.25;;;;;;;25.52;59.26;100202.56;4995240;28;20097;-75
2022/04/25 08:10:31;;;;;;;18.88;3.92;;;;;;;25.51;57.35;100198.19;4996554;28;20034;-76
2022/04/25 08:19:26;;;;;;;15.98;4.22;;;;;;;26.07;56.58;100185.97;4994749;28;20069;-76
2022/04/25 08:22:11;;;;;;;20.98;3.83;;;;;;;26.85;55.35;100184.13;4996821;28;20506;-74
2022/04/25 08:24:58;;;;;;;19.23;3.95;;;;;;;26.76;54.78;100193.06;4995283;28;20056;-78
2022/04/25 08:27:44;;;;;;;16.58;3.85;;;;;;;26.99;53.40;100187.22;4995180;28;20022;-76
2022/04/25 08:30:29;;;;;;;12.60;3.58;;;;;;;26.81;53.98;100193.47;4996682;28;20443;-75
2022/04/25 08:33:15;;;;;;;12.10;3.90;;;;;;;26.98;53.17;100187.38;4996138;28;20107;-75
2022/04/25 08:36:02;;;;;;;20.90;4.20;;;;;;;27.49;51.89;100199.47;4982318;28;20030;-75
2022/04/25 08:38:51;;;;;;;18.38;4.05;;;;;;;27.29;52.12;100199.69;4981314;28;20088;-76
2022/04/25 08:41:45;;;;;;;16.20;3.72;;;;;;;27.24;51.94;100196.56;4979602;28;20117;-75
2022/04/25 08:44:33;;;;;;;16.70;4.10;;;;;;;27.54;50.72;100196.34;4995029;28;20451;-75
2022/04/25 08:47:25;;;;;;;13.95;3.60;;;;;;;27.04;52.11;100200.22;4997202;28;20490;-75
2022/04/25 08:50:12;;;;;;;14.05;3.80;;;;;;;27.78;51.93;100215.53;4996404;28;20034;-75
2022/04/25 08:52:59;;;;;;;14.48;3.50;;;;;;;27.33;52.17;100204.59;4996555;28;20510;-76
2022/04/25 08:55:45;;;;;;;14.68;4.05;;;;;;;27.28;52.88;100212.28;4994146;28;20085;-75
2022/04/25 08:58:35;;;;;;;17.13;4.15;;;;;;;27.55;54.17;100216.88;4995801;28;20083;-75
2022/04/25 09:01:22;;;;;;;24.83;9.38;;;;;;;27.24;56.39;100205.47;4996102;28;20034;-75
2022/04/25 09:04:08;;;;;;;16.70;4.25;;;;;;;26.60;59.15;100198.16;4994098;28;20026;-76
2022/04/25 09:06:55;;;;;;;19.50;4.68;;;;;;;27.09;58.44;100197.97;4994302;28;20022;-76
2022/04/25 09:09:41;;;;;;;23.75;4.20;;;;;;;27.08;60.77;100190.88;4994266;28;20041;-75
2022/04/25 09:12:28;;;;;;;17.05;4.28;;;;;;;26.86;61.34;100197.44;4982315;28;20033;-75
2022/04/25 09:15:19;;;;;;;16.92;4.40;;;;;;;27.08;59.72;100202.50;4995643;28;20029;-75
2022/04/25 09:18:05;;;;;;;19.52;4.10;;;;;;;27.47;59.55;100207.84;4981266;28;20026;-75
2022/04/25 09:20:53;;;;;;;16.92;4.28;;;;;;;27.62;58.65;100204.53;4993694;28;20025;-75
2022/04/25 09:23:39;;;;;;;21.15;4.32;;;;;;;27.83;56.98;100207.88;4981258;28;20026;-76
2022/04/25 09:26:28;;;;;;;13.25;3.83;;;;;;;27.69;57.21;100202.09;4994940;28;20416;-76
2022/04/25 09:29:14;;;;;;;16.65;4.32;;;;;;;27.70;58.96;100196.56;4981158;28;20061;-76
2022/04/25 09:32:04;;;;;;;15.75;4.15;;;;;;;27.99;58.87;100202.69;4995074;28;20115;-75
2022/04/25 09:35:05;;;;;;;10.60;3.80;;;;;;;27.33;63.33;100193.00;4996114;28;20467;-75
2022/04/25 09:37:51;;;;;;;17.30;4.40;;;;;;;27.15;65.62;100183.94;4981586;28;20092;-76
2022/04/25 09:40:38;;;;;;;15.98;4.28;;;;;;;26.48;70.46;100192.00;4993897;28;20034;-76
2022/04/25 09:43:32;;;;;;;15.55;4.43;;;;;;;26.33;71.86;100193.38;4995085;28;20132;-74
2022/04/25 09:46:17;;;;;;;19.90;4.10;;;;;;;26.58;72.56;100186.69;4995729;28;20038;-75
2022/04/25 09:49:06;;;;;;;14.75;3.95;;;;;;;27.20;67.75;100193.31;4995315;28;20030;-75
2022/04/25 09:52:03;;;;;;;17.80;4.20;;;;;;;26.96;68.95;100184.81;4995406;28;20041;-77
2022/04/25 09:54:49;;;;;;;9.98;3.38;;;;;;;27.04;71.17;100179.56;4994851;28;20110;-76
2022/04/25 09:57:34;;;;;;;12.05;3.85;;;;;;;26.89;70.87;100183.69;4995008;28;20019;-75
2022/04/25 10:00:37;;;;;;;8.98;3.38;;;;;;;26.91;74.01;100183.56;4995677;28;20034;-76
2022/04/25 10:03:34;;;;;;;10.82;4.00;;;;;;;27.40;73.65;100180.66;4993579;28;20084;-75
2022/04/25 10:06:22;;;;;;;15.90;4.03;;;;;;;27.60;71.19;100192.22;4980457;28;20521;-76
2022/04/25 10:09:08;;;;;;;13.27;3.97;;;;;;;27.48;68.61;100195.09;4980280;28;20027;-75
2022/04/25 10:11:57;;;;;;;17.75;3.70;;;;;;;27.31;74.92;100190.47;4993467;28;20026;-75
2022/04/25 10:14:43;;;;;;;14.20;3.78;;;;;;;27.43;70.63;100192.00;4995141;28;20045;-76
2022/04/25 10:17:40;;;;;;;10.88;3.83;;;;;;;27.85;68.38;100192.44;4994980;28;20030;-76
2022/04/25 10:20:26;;;;;;;12.88;3.70;;;;;;;27.57;69.80;100195.19;4980200;28;20427;-75
2022/04/25 10:23:13;;;;;;;11.80;4.15;;;;;;;27.89;67.95;100198.34;4981379;28;20100;-76
2022/04/25 10:26:01;;;;;;;10.23;3.58;;;;;;;27.79;62.11;100206.44;4993742;28;20038;-75
2022/04/25 10:28:54;;;;;;;18.13;3.90;;;;;;;27.57;61.36;100212.22;4980488;28;20033;-76
2022/04/25 10:31:43;;;;;;;13.95;3.83;;;;;;;27.50;59.05;100216.47;4994873;28;20101;-76
2022/04/25 10:34:51;;;;;;;12.90;3.65;;;;;;;27.15;62.13;100213.53;4995107;28;20463;-75
2022/04/25 10:37:43;;;;;;;12.75;3.80;;;;;;;27.30;60.33;100212.13;4993152;28;20487;-74
2022/04/25 10:47:09;;;;;;;12.70;3.17;;;;;;;26.86;57.64;100199.28;4993616;28;20096;-74
2022/04/25 10:49:56;;;;;;;11.18;3.45;;;;;;;26.32;58.46;100210.50;4993344;28;20444;-74
2022/04/25 10:52:51;;;;;;;11.90;2.92;;;;;;;26.76;50.35;100203.81;4994572;28;20026;-75
2022/04/25 10:55:42;;;;;;;13.30;3.50;;;;;;;26.29;50.80;100208.09;4993116;28;20034;-76
2022/04/25 10:58:27;;;;;;;17.42;3.28;;;;;;;26.36;53.42;100214.63;4993300;28;20038;-75
2022/04/25 11:01:30;;;;;;;12.25;3.42;;;;;;;26.90;53.49;100211.44;4994773;28;20022;-75
2022/04/25 11:04:18;;;;;;;10.00;3.95;;;;;;;26.91;53.48;100218.50;4979082;28;20061;-75
2022/04/25 11:07:18;;;;;;;11.52;3.85;;;;;;;26.60;55.13;100215.09;4994081;28;20057;-75
2022/04/25 11:10:05;;;;;;;9.25;3.20;;;;;;;27.05;54.41;100216.22;4997033;28;20513;-76
2022/04/25 11:12:58;;;;;;;13.90;3.85;;;;;;;27.04;54.82;100208.28;4997401;28;20038;-74
2022/04/25 11:15:49;;;;;;;12.32;3.30;;;;;;;27.18;53.86;100211.41;4998514;28;20030;-74
2022/04/25 11:18:38;;;;;;;17.83;3.30;;;;;;;27.37;53.82;100218.63;4996374;28;20101;-75
2022/04/25 11:21:34;;;;;;;10.85;3.47;;;;;;;27.36;54.95;100211.53;4983239;28;20023;-75
2022/04/25 11:24:35;;;;;;;7.90;3.20;;;;;;;27.34;55.66;100210.84;4982381;28;20034;-75
2022/04/25 11:27:21;;;;;;;14.93;3.42;;;;;;;26.93;52.97;100211.16;4998059;28;20026;-75
2022/04/25 11:30:16;;;;;;;9.23;2.70;;;;;;;27.20;50.17;100211.28;4997408;28;20030;-75
2022/04/25 11:33:06;;;;;;;12.98;3.30;;;;;;;27.09;50.06;100211.44;4997822;28;20050;-75
2022/04/25 11:35:59;;;;;;;12.10;3.33;;;;;;;26.86;50.38;100210.03;4997664;28;20367;-75
2022/04/25 11:41:54;;;;;;;18.38;3.40;;;;;;;27.18;48.57;100215.94;4996215;28;20033;-75
2022/04/25 11:44:40;;;;;;;11.65;3.13;;;;;;;27.48;47.69;100219.31;4995491;28;20042;-81
2022/04/25 11:47:27;;;;;;;13.93;3.38;;;;;;;27.12;49.82;100220.06;4984391;28;20037;-75
2022/04/25 11:50:19;;;;;;;10.15;3.13;;;;;;;27.49;48.91;100231.75;4995707;28;20030;-76
2022/04/25 11:53:06;;;;;;;13.27;3.05;;;;;;;27.14;47.14;100233.34;4995851;28;20031;-76
2022/04/25 11:55:55;;;;;;;11.75;3.40;;;;;;;26.91;49.58;100226.56;4982381;28;20035;-76
2022/04/25 11:58:41;;;;;;;9.23;3.03;;;;;;;27.10;50.72;100223.88;4997811;28;20329;-76
2022/04/25 12:01:41;;;;;;;10.77;2.78;;;;;;;27.81;47.41;100225.16;4997380;28;20026;-75
2022/04/25 12:04:29;;;;;;;11.70;3.10;;;;;;;27.55;46.84;100224.94;4997043;28;20041;-75
2022/04/25 12:07:15;;;;;;;9.20;2.92;;;;;;;27.15;46.87;100225.16;4995439;28;20045;-76
2022/04/25 12:16:18;;;;;;;10.13;2.85;;;;;;;27.27;47.00;100209.72;4995581;28;20065;-81
2022/04/25 12:19:12;;;;;;;17.45;3.55;;;;;;;27.40;46.88;100215.63;4994207;28;20045;-77
2022/04/25 12:22:03;;;;;;;13.02;7.07;;;;;;;27.43;46.52;100207.28;4995226;28;20034;-74
2022/04/25 12:24:50;;;;;;;9.55;3.35;;;;;;;27.37;45.62;100200.63;4995025;28;20033;-74
2022/04/25 12:27:35;;;;;;;9.50;3.08;;;;;;;26.79;47.42;100203.50;4995102;28;20046;-75
2022/04/25 12:30:21;;;;;;;10.88;3.35;;;;;;;26.83;46.95;100196.84;4982539;28;20120;-75
2022/04/25 12:33:12;;;;;;;14.43;3.15;;;;;;;26.89;47.87;100196.31;4996244;28;20112;-75
2022/04/25 12:36:19;;;;;;;10.77;2.95;;;;;;;27.01;47.55;100195.16;4995011;28;20041;-75
2022/04/25 12:39:13;;;;;;;12.98;3.15;;;;;;;27.04;46.41;100189.47;4995685;28;20336;-75
2022/04/25 12:42:00;;;;;;;13.75;2.90;;;;;;;26.85;46.40;100193.03;4981878;28;20113;-75
2022/04/25 12:44:56;;;;;;;9.07;3.10;;;;;;;26.64;46.15;100194.19;4994380;28;20447;-75
2022/04/25 12:47:43;;;;;;;8.55;2.88;;;;;;;26.97;46.00;100188.38;4981887;28;20056;-73
2022/04/25 12:50:45;;;;;;;10.40;2.95;;;;;;;26.83;45.75;100180.72;4994212;28;20112;-75
2022/04/25 12:53:39;;;;;;;10.85;2.53;;;;;;;27.10;45.11;100184.41;4994185;28;20093;-74
2022/04/25 12:56:27;;;;;;;10.07;2.88;;;;;;;26.61;44.02;100176.47;4994288;28;20023;-74
2022/04/25 12:59:23;;;;;;;11.55;2.92;;;;;;;26.72;44.56;100173.66;4994743;28;20034;-74
2022/04/25 13:02:11;;;;;;;11.20;2.90;;;;;;;26.70;45.63;100175.66;4995681;28;20042;-75
2022/04/25 13:05:08;;;;;;;12.65;2.92;;;;;;;27.06;45.63;100180.28;4994402;28;20026;-75
2022/04/25 13:07:54;;;;;;;12.25;2.95;;;;;;;27.52;44.96;100184.03;4995191;28;20030;-75
2022/04/25 13:10:40;;;;;;;9.32;2.53;;;;;;;27.37;44.78;100184.47;4994499;28;20027;-74
2022/04/25 13:13:27;;;;;;;10.55;2.55;;;;;;;27.37;44.06;100187.19;4994161;28;20129;-75
2022/04/25 13:16:13;;;;;;;15.45;3.08;;;;;;;27.54;44.42;100182.88;4981231;28;20042;-74
2022/04/25 13:18:59;;;;;;;13.40;2.92;;;;;;;27.33;44.84;100191.16;4995863;28;20045;-75
2022/04/25 13:21:45;;;;;;;12.75;5.10;;;;;;;27.20;44.39;100189.75;4995778;28;20030;-75
2022/04/25 13:24:32;;;;;;;17.00;4.43;;;;;;;27.24;43.87;100191.16;4993710;28;20069;-74
2022/04/25 13:27:17;;;;;;;11.98;2.92;;;;;;;27.45;43.01;100186.47;4994847;28;20034;-74
2022/04/25 13:30:06;;;;;;;15.52;2.80;;;;;;;27.61;43.23;100196.59;4995539;28;20037;-74
2022/04/25 13:32:53;;;;;;;11.88;2.78;;;;;;;27.22;43.55;100194.03;4993621;28;20054;-74
2022/04/25 13:35:39;;;;;;;14.70;3.15;;;;;;;27.56;42.84;100199.72;4980995;28;20034;-74
2022/04/25 13:38:28;;;;;;;7.70;2.58;;;;;;;27.49;43.00;100195.94;4993850;28;20374;-75